CFG9LF LKPR-EDDF
Flight info
| Callsign | CFG9LF |
|---|---|
| Flight time | 0h 43m |
| Altitude | 30000 |
| Route | BALTU DCT DONAD DCT RAPET T170 VAGAB/N0384F240 T170 GAPLA T178 KERAX KERAX5A |
| Aircraft | A321/M-SDE2E3FGHIJ1RWXYZ/LB1 |
Departure
| Time | 2026-05-06 09:02 |
|---|---|
| Airport | Václav Havel Airport Prague (LKPR) |
Arrival
| Time | 2026-05-06 09:46 |
|---|---|
| Airport | Frankfurt Main Airport (EDDF) |
| Time | Latitude | Longitude | Altitude | Speed | Heading |
|---|---|---|---|---|---|
| 2026-05-06 08:38 | 50.10562 | 14.26346 | 1178 ft | 0 kts | 34° |
| 2026-05-06 08:53 | 50.10551 | 14.26335 | 1175 ft | 4 kts | 32° |
| 2026-05-06 08:54 | 50.10528 | 14.26313 | 1174 ft | 4 kts | 36° |
| 2026-05-06 08:54 | 50.10512 | 14.26288 | 1175 ft | 4 kts | 88° |
| 2026-05-06 08:54 | 50.10512 | 14.26278 | 1178 ft | 0 kts | 124° |
| 2026-05-06 08:56 | 50.10511 | 14.26280 | 1178 ft | 2 kts | 124° |
| 2026-05-06 08:56 | 50.10494 | 14.26319 | 1173 ft | 10 kts | 124° |
| 2026-05-06 08:56 | 50.10450 | 14.26422 | 1174 ft | 12 kts | 123° |
| 2026-05-06 08:56 | 50.10408 | 14.26521 | 1179 ft | 10 kts | 124° |
| 2026-05-06 08:57 | 50.10370 | 14.26591 | 1180 ft | 7 kts | 143° |
| 2026-05-06 08:57 | 50.10321 | 14.26587 | 1185 ft | 10 kts | 202° |
| 2026-05-06 08:57 | 50.10262 | 14.26532 | 1194 ft | 6 kts | 197° |
| 2026-05-06 08:57 | 50.10226 | 14.26550 | 1196 ft | 8 kts | 140° |
| 2026-05-06 08:58 | 50.10168 | 14.26662 | 1197 ft | 21 kts | 128° |
| 2026-05-06 08:58 | 50.10078 | 14.26849 | 1201 ft | 21 kts | 126° |
| 2026-05-06 08:58 | 50.09996 | 14.27018 | 1205 ft | 19 kts | 126° |
| 2026-05-06 08:58 | 50.09922 | 14.27175 | 1206 ft | 18 kts | 126° |
| 2026-05-06 08:59 | 50.09842 | 14.27333 | 1205 ft | 19 kts | 131° |
| 2026-05-06 08:59 | 50.09755 | 14.27470 | 1206 ft | 17 kts | 134° |
| 2026-05-06 08:59 | 50.09670 | 14.27598 | 1207 ft | 17 kts | 136° |
| 2026-05-06 08:59 | 50.09586 | 14.27724 | 1209 ft | 19 kts | 136° |
| 2026-05-06 09:00 | 50.09482 | 14.27884 | 1215 ft | 21 kts | 136° |
| 2026-05-06 09:00 | 50.09383 | 14.28037 | 1220 ft | 19 kts | 135° |
| 2026-05-06 09:00 | 50.09299 | 14.28170 | 1224 ft | 15 kts | 135° |
| 2026-05-06 09:00 | 50.09225 | 14.28269 | 1228 ft | 13 kts | 148° |
| 2026-05-06 09:01 | 50.09163 | 14.28286 | 1233 ft | 6 kts | 197° |
| 2026-05-06 09:01 | 50.09122 | 14.28243 | 1243 ft | 8 kts | 218° |
| 2026-05-06 09:01 | 50.09105 | 14.28167 | 1241 ft | 8 kts | 261° |
| 2026-05-06 09:01 | 50.09101 | 14.28050 | 1241 ft | 15 kts | 295° |
| 2026-05-06 09:02 | 50.09234 | 14.27754 | 1229 ft | 70 kts | 308° |
| 2026-05-06 09:02 | 50.09683 | 14.26840 | 1219 ft | 141 kts | 305° |
| 2026-05-06 09:02 | 50.10325 | 14.25551 | 1855 ft | 151 kts | 300° |
| 2026-05-06 09:02 | 50.10952 | 14.24263 | 2639 ft | 156 kts | 300° |
| 2026-05-06 09:03 | 50.11653 | 14.22784 | 3213 ft | 179 kts | 302° |
| 2026-05-06 09:03 | 50.12436 | 14.21132 | 3672 ft | 200 kts | 301° |
| 2026-05-06 09:03 | 50.13301 | 14.19320 | 3989 ft | 223 kts | 303° |
| 2026-05-06 09:03 | 50.14293 | 14.17249 | 4380 ft | 248 kts | 302° |
| 2026-05-06 09:04 | 50.15349 | 14.15055 | 5104 ft | 256 kts | 303° |
| 2026-05-06 09:04 | 50.16430 | 14.12827 | 6203 ft | 259 kts | 303° |
| 2026-05-06 09:04 | 50.17525 | 14.10567 | 7178 ft | 263 kts | 303° |
| 2026-05-06 09:04 | 50.18636 | 14.08261 | 8143 ft | 269 kts | 302° |
| 2026-05-06 09:05 | 50.19773 | 14.05896 | 9114 ft | 275 kts | 302° |
| 2026-05-06 09:05 | 50.20929 | 14.03482 | 10033 ft | 280 kts | 301° |
| 2026-05-06 09:05 | 50.21857 | 14.00809 | 10726 ft | 287 kts | 287° |
| 2026-05-06 09:05 | 50.22285 | 13.97663 | 11076 ft | 306 kts | 270° |
| 2026-05-06 09:06 | 50.22053 | 13.94290 | 11475 ft | 321 kts | 252° |
| 2026-05-06 09:06 | 50.21342 | 13.90950 | 12216 ft | 327 kts | 249° |
| 2026-05-06 09:06 | 50.20618 | 13.87558 | 13064 ft | 332 kts | 250° |
| 2026-05-06 09:06 | 50.19894 | 13.84101 | 13861 ft | 337 kts | 250° |
| 2026-05-06 09:07 | 50.19162 | 13.80596 | 14640 ft | 341 kts | 250° |
| 2026-05-06 09:07 | 50.18424 | 13.77069 | 15420 ft | 344 kts | 250° |
| 2026-05-06 09:07 | 50.17793 | 13.73499 | 16158 ft | 350 kts | 259° |
| 2026-05-06 09:07 | 50.17738 | 13.69626 | 16905 ft | 356 kts | 268° |
| 2026-05-06 09:08 | 50.17812 | 13.65744 | 17652 ft | 359 kts | 269° |
| 2026-05-06 09:08 | 50.17897 | 13.61887 | 18325 ft | 362 kts | 269° |
| 2026-05-06 09:08 | 50.17986 | 13.57946 | 18951 ft | 365 kts | 269° |
| 2026-05-06 09:08 | 50.18075 | 13.53921 | 19571 ft | 367 kts | 269° |
| 2026-05-06 09:09 | 50.18157 | 13.49981 | 20146 ft | 369 kts | 269° |
| 2026-05-06 09:09 | 50.18240 | 13.45970 | 20729 ft | 371 kts | 269° |
| 2026-05-06 09:09 | 50.18318 | 13.41926 | 21314 ft | 373 kts | 269° |
| 2026-05-06 09:09 | 50.18390 | 13.37868 | 21897 ft | 376 kts | 269° |
| 2026-05-06 09:10 | 50.18462 | 13.33781 | 22480 ft | 378 kts | 269° |
| 2026-05-06 09:10 | 50.18527 | 13.29663 | 23073 ft | 381 kts | 268° |
| 2026-05-06 09:10 | 50.18575 | 13.25527 | 23622 ft | 383 kts | 268° |
| 2026-05-06 09:10 | 50.18612 | 13.21354 | 24140 ft | 385 kts | 268° |
| 2026-05-06 09:11 | 50.18644 | 13.17181 | 24647 ft | 387 kts | 267° |
| 2026-05-06 09:11 | 50.18673 | 13.12966 | 25158 ft | 389 kts | 267° |
| 2026-05-06 09:11 | 50.18698 | 13.08742 | 25687 ft | 391 kts | 267° |
| 2026-05-06 09:11 | 50.18725 | 13.04482 | 26197 ft | 393 kts | 267° |
| 2026-05-06 09:12 | 50.18754 | 13.00260 | 26696 ft | 395 kts | 267° |
| 2026-05-06 09:12 | 50.18789 | 12.95958 | 27198 ft | 398 kts | 267° |
| 2026-05-06 09:12 | 50.18821 | 12.91629 | 27704 ft | 400 kts | 267° |
| 2026-05-06 09:12 | 50.18850 | 12.87279 | 28184 ft | 402 kts | 267° |
| 2026-05-06 09:13 | 50.18876 | 12.82909 | 28666 ft | 404 kts | 266° |
| 2026-05-06 09:13 | 50.18898 | 12.78510 | 29113 ft | 407 kts | 267° |
| 2026-05-06 09:13 | 50.18921 | 12.74085 | 29555 ft | 408 kts | 266° |
| 2026-05-06 09:13 | 50.18943 | 12.69652 | 29802 ft | 409 kts | 266° |
| 2026-05-06 09:14 | 50.18966 | 12.65285 | 29829 ft | 395 kts | 266° |
| 2026-05-06 09:14 | 50.19005 | 12.56815 | 29824 ft | 389 kts | 266° |
| 2026-05-06 09:15 | 50.19031 | 12.48381 | 29816 ft | 388 kts | 266° |
| 2026-05-06 09:15 | 50.19043 | 12.39959 | 29811 ft | 389 kts | 266° |
| 2026-05-06 09:16 | 50.19627 | 12.31533 | 29801 ft | 397 kts | 281° |
| 2026-05-06 09:16 | 50.21490 | 12.23355 | 29800 ft | 400 kts | 284° |
| 2026-05-06 09:17 | 50.23370 | 12.15173 | 29805 ft | 400 kts | 284° |
| 2026-05-06 09:17 | 50.25233 | 12.06977 | 29826 ft | 400 kts | 284° |
| 2026-05-06 09:18 | 50.27083 | 11.98800 | 29845 ft | 399 kts | 284° |
| 2026-05-06 09:18 | 50.28962 | 11.90648 | 29835 ft | 398 kts | 284° |
| 2026-05-06 09:19 | 50.30836 | 11.82520 | 29826 ft | 397 kts | 284° |
| 2026-05-06 09:19 | 50.32694 | 11.74374 | 29820 ft | 397 kts | 284° |
| 2026-05-06 09:20 | 50.34539 | 11.66237 | 29803 ft | 396 kts | 283° |
| 2026-05-06 09:20 | 50.36365 | 11.58159 | 29817 ft | 396 kts | 283° |
| 2026-05-06 09:21 | 50.38215 | 11.49973 | 29807 ft | 396 kts | 283° |
| 2026-05-06 09:21 | 50.40029 | 11.41884 | 29795 ft | 396 kts | 283° |
| 2026-05-06 09:22 | 50.41844 | 11.33748 | 29770 ft | 395 kts | 283° |
| 2026-05-06 09:22 | 50.43651 | 11.25604 | 29765 ft | 395 kts | 283° |
| 2026-05-06 09:23 | 50.45456 | 11.17441 | 29765 ft | 395 kts | 283° |
| 2026-05-06 09:23 | 50.47256 | 11.09286 | 29780 ft | 395 kts | 283° |
| 2026-05-06 09:24 | 50.49051 | 11.01133 | 29763 ft | 395 kts | 283° |
| 2026-05-06 09:24 | 50.50832 | 10.92972 | 29754 ft | 395 kts | 283° |
| 2026-05-06 09:24 | 50.51694 | 10.88881 | 29619 ft | 394 kts | 279° |
| 2026-05-06 09:25 | 50.52218 | 10.84686 | 29325 ft | 389 kts | 271° |
| 2026-05-06 09:25 | 50.52318 | 10.80463 | 29042 ft | 385 kts | 263° |
| 2026-05-06 09:25 | 50.52016 | 10.76299 | 28758 ft | 383 kts | 256° |
| 2026-05-06 09:25 | 50.51328 | 10.72266 | 28496 ft | 382 kts | 249° |
| 2026-05-06 09:26 | 50.50508 | 10.68336 | 28224 ft | 385 kts | 249° |
| 2026-05-06 09:26 | 50.49662 | 10.64278 | 27946 ft | 387 kts | 249° |
| 2026-05-06 09:26 | 50.48826 | 10.60259 | 27517 ft | 386 kts | 250° |
| 2026-05-06 09:26 | 50.48014 | 10.56332 | 26869 ft | 379 kts | 250° |
| 2026-05-06 09:27 | 50.47207 | 10.52430 | 26236 ft | 374 kts | 250° |
| 2026-05-06 09:27 | 50.46404 | 10.48575 | 25612 ft | 368 kts | 250° |
| 2026-05-06 09:27 | 50.45610 | 10.44788 | 25015 ft | 364 kts | 250° |
| 2026-05-06 09:27 | 50.44820 | 10.41029 | 24412 ft | 362 kts | 250° |
| 2026-05-06 09:28 | 50.44033 | 10.37286 | 23819 ft | 361 kts | 250° |
| 2026-05-06 09:28 | 50.43246 | 10.33551 | 23218 ft | 360 kts | 250° |
| 2026-05-06 09:28 | 50.42460 | 10.29833 | 22615 ft | 358 kts | 250° |
| 2026-05-06 09:28 | 50.41678 | 10.26134 | 22077 ft | 356 kts | 250° |
| 2026-05-06 09:29 | 50.40897 | 10.22458 | 21568 ft | 354 kts | 250° |
| 2026-05-06 09:29 | 50.40119 | 10.18801 | 21082 ft | 353 kts | 249° |
| 2026-05-06 09:29 | 50.39344 | 10.15166 | 20592 ft | 351 kts | 249° |
| 2026-05-06 09:29 | 50.38575 | 10.11550 | 20118 ft | 349 kts | 249° |
| 2026-05-06 09:30 | 50.37810 | 10.07952 | 19650 ft | 347 kts | 249° |
| 2026-05-06 09:30 | 50.37045 | 10.04366 | 19180 ft | 345 kts | 249° |
| 2026-05-06 09:30 | 50.36298 | 10.00861 | 18714 ft | 343 kts | 249° |
| 2026-05-06 09:30 | 50.35544 | 9.97331 | 18233 ft | 341 kts | 249° |
| 2026-05-06 09:31 | 50.34793 | 9.93823 | 17720 ft | 339 kts | 249° |
| 2026-05-06 09:31 | 50.34043 | 9.90326 | 17224 ft | 337 kts | 249° |
| 2026-05-06 09:31 | 50.33299 | 9.86872 | 16729 ft | 335 kts | 249° |
| 2026-05-06 09:31 | 50.32553 | 9.83424 | 16242 ft | 332 kts | 249° |
| 2026-05-06 09:32 | 50.31816 | 9.80021 | 15741 ft | 329 kts | 249° |
| 2026-05-06 09:32 | 50.31079 | 9.76634 | 15235 ft | 327 kts | 249° |
| 2026-05-06 09:32 | 50.30349 | 9.73281 | 14740 ft | 325 kts | 250° |
| 2026-05-06 09:32 | 50.29626 | 9.69950 | 14252 ft | 322 kts | 250° |
| 2026-05-06 09:33 | 50.28909 | 9.66643 | 13739 ft | 320 kts | 250° |
| 2026-05-06 09:33 | 50.28195 | 9.63356 | 13194 ft | 317 kts | 250° |
| 2026-05-06 09:33 | 50.27486 | 9.60106 | 12686 ft | 315 kts | 249° |
| 2026-05-06 09:33 | 50.26780 | 9.56881 | 12175 ft | 312 kts | 249° |
| 2026-05-06 09:34 | 50.26079 | 9.53685 | 11667 ft | 309 kts | 249° |
| 2026-05-06 09:34 | 50.25381 | 9.50521 | 11148 ft | 306 kts | 249° |
| 2026-05-06 09:34 | 50.24690 | 9.47388 | 10631 ft | 304 kts | 249° |
| 2026-05-06 09:34 | 50.24009 | 9.44292 | 10294 ft | 295 kts | 249° |
| 2026-05-06 09:35 | 50.23361 | 9.41342 | 10107 ft | 280 kts | 249° |
| 2026-05-06 09:35 | 50.22727 | 9.38518 | 9868 ft | 274 kts | 248° |
| 2026-05-06 09:35 | 50.22092 | 9.35765 | 9679 ft | 271 kts | 248° |
| 2026-05-06 09:35 | 50.21440 | 9.32964 | 9545 ft | 271 kts | 248° |
| 2026-05-06 09:36 | 50.20796 | 9.30198 | 9410 ft | 271 kts | 248° |
| 2026-05-06 09:36 | 50.20156 | 9.27440 | 9276 ft | 270 kts | 249° |
| 2026-05-06 09:36 | 50.19517 | 9.24687 | 9057 ft | 271 kts | 249° |
| 2026-05-06 09:36 | 50.18881 | 9.21939 | 8594 ft | 268 kts | 249° |
| 2026-05-06 09:37 | 50.18256 | 9.19244 | 8144 ft | 266 kts | 249° |
| 2026-05-06 09:37 | 50.17627 | 9.16540 | 7677 ft | 264 kts | 249° |
| 2026-05-06 09:37 | 50.17003 | 9.13861 | 7394 ft | 262 kts | 249° |
| 2026-05-06 09:37 | 50.16365 | 9.11167 | 6967 ft | 261 kts | 249° |
| 2026-05-06 09:38 | 50.15742 | 9.08520 | 6502 ft | 260 kts | 249° |
| 2026-05-06 09:38 | 50.15125 | 9.05875 | 6054 ft | 259 kts | 250° |
| 2026-05-06 09:38 | 50.14511 | 9.03239 | 5583 ft | 257 kts | 249° |
| 2026-05-06 09:38 | 50.13913 | 9.00681 | 5316 ft | 247 kts | 249° |
| 2026-05-06 09:39 | 50.13343 | 8.98236 | 5252 ft | 225 kts | 249° |
| 2026-05-06 09:39 | 50.12832 | 8.96053 | 5208 ft | 204 kts | 249° |
| 2026-05-06 09:39 | 50.12365 | 8.94052 | 5058 ft | 192 kts | 249° |
| 2026-05-06 09:39 | 50.11921 | 8.92156 | 4837 ft | 186 kts | 249° |
| 2026-05-06 09:40 | 50.11482 | 8.90285 | 4607 ft | 181 kts | 249° |
| 2026-05-06 09:40 | 50.11052 | 8.88455 | 4359 ft | 178 kts | 249° |
| 2026-05-06 09:40 | 50.10219 | 8.84913 | 3886 ft | 171 kts | 249° |
| 2026-05-06 09:41 | 50.09807 | 8.83162 | 3656 ft | 173 kts | 249° |
| 2026-05-06 09:41 | 50.09392 | 8.81413 | 3433 ft | 171 kts | 248° |
| 2026-05-06 09:41 | 50.08983 | 8.79672 | 3208 ft | 171 kts | 248° |
| 2026-05-06 09:41 | 50.08573 | 8.77932 | 2966 ft | 171 kts | 249° |
| 2026-05-06 09:42 | 50.08286 | 8.76774 | 2865 ft | 166 kts | 246° |
| 2026-05-06 09:42 | 50.07987 | 8.75132 | 2813 ft | 149 kts | 258° |
| 2026-05-06 09:42 | 50.07832 | 8.73612 | 2664 ft | 140 kts | 257° |
| 2026-05-06 09:42 | 50.07614 | 8.72212 | 2515 ft | 127 kts | 252° |
| 2026-05-06 09:43 | 50.07388 | 8.70899 | 2333 ft | 124 kts | 253° |
| 2026-05-06 09:43 | 50.07149 | 8.69621 | 2110 ft | 122 kts | 250° |
| 2026-05-06 09:43 | 50.06877 | 8.68385 | 1902 ft | 120 kts | 248° |
| 2026-05-06 09:43 | 50.06580 | 8.67173 | 1719 ft | 120 kts | 246° |
| 2026-05-06 09:44 | 50.06297 | 8.65971 | 1527 ft | 120 kts | 246° |
| 2026-05-06 09:44 | 50.05985 | 8.64775 | 1323 ft | 121 kts | 245° |
| 2026-05-06 09:44 | 50.05678 | 8.63555 | 1102 ft | 122 kts | 247° |
| 2026-05-06 09:44 | 50.05376 | 8.62327 | 957 ft | 122 kts | 246° |
| 2026-05-06 09:45 | 50.05086 | 8.61070 | 758 ft | 122 kts | 245° |
| 2026-05-06 09:45 | 50.04803 | 8.59876 | 584 ft | 119 kts | 247° |
| 2026-05-06 09:45 | 50.04511 | 8.58680 | 424 ft | 118 kts | 246° |
| 2026-05-06 09:45 | 50.04234 | 8.57518 | 369 ft | 107 kts | 246° |
| 2026-05-06 09:46 | 50.04027 | 8.56722 | 358 ft | 38 kts | 255° |
| 2026-05-06 09:46 | 50.03993 | 8.56483 | 357 ft | 17 kts | 259° |
| 2026-05-06 09:46 | 50.04001 | 8.56293 | 352 ft | 18 kts | 283° |
| 2026-05-06 09:46 | 50.04015 | 8.56176 | 354 ft | 7 kts | 283° |
| 2026-05-06 09:47 | 50.04021 | 8.56158 | 350 ft | 2 kts | 308° |
| 2026-05-06 09:47 | 50.04040 | 8.56141 | 358 ft | 4 kts | 335° |
| 2026-05-06 09:47 | 50.04068 | 8.56136 | 357 ft | 5 kts | 5° |
| 2026-05-06 09:47 | 50.04098 | 8.56174 | 357 ft | 7 kts | 51° |
| 2026-05-06 09:48 | 50.04119 | 8.56242 | 360 ft | 7 kts | 68° |
| 2026-05-06 09:48 | 50.04136 | 8.56312 | 355 ft | 7 kts | 69° |
| 2026-05-06 09:48 | 50.04152 | 8.56378 | 358 ft | 6 kts | 69° |
| 2026-05-06 09:48 | 50.04166 | 8.56439 | 357 ft | 6 kts | 70° |
| 2026-05-06 09:49 | 50.04180 | 8.56498 | 357 ft | 6 kts | 70° |
| 2026-05-06 09:49 | 50.04194 | 8.56555 | 362 ft | 5 kts | 70° |
| 2026-05-06 09:49 | 50.04208 | 8.56615 | 358 ft | 7 kts | 70° |
| 2026-05-06 09:49 | 50.04228 | 8.56707 | 362 ft | 11 kts | 71° |
| 2026-05-06 09:50 | 50.04251 | 8.56801 | 361 ft | 8 kts | 69° |
| 2026-05-06 09:50 | 50.04273 | 8.56894 | 363 ft | 11 kts | 70° |
| 2026-05-06 09:50 | 50.04302 | 8.57017 | 362 ft | 13 kts | 69° |
| 2026-05-06 09:50 | 50.04334 | 8.57142 | 363 ft | 11 kts | 69° |
| 2026-05-06 09:51 | 50.04360 | 8.57251 | 364 ft | 10 kts | 70° |
| 2026-05-06 09:51 | 50.04381 | 8.57337 | 364 ft | 7 kts | 70° |
| 2026-05-06 09:51 | 50.04395 | 8.57398 | 365 ft | 6 kts | 71° |
| 2026-05-06 09:51 | 50.04418 | 8.57500 | 365 ft | 14 kts | 70° |
| 2026-05-06 09:52 | 50.04452 | 8.57638 | 367 ft | 12 kts | 69° |
| 2026-05-06 09:52 | 50.04479 | 8.57756 | 367 ft | 13 kts | 71° |
| 2026-05-06 09:52 | 50.04516 | 8.57908 | 367 ft | 15 kts | 70° |
| 2026-05-06 09:52 | 50.04563 | 8.58020 | 362 ft | 12 kts | 25° |
| 2026-05-06 09:53 | 50.04647 | 8.57996 | 361 ft | 12 kts | 339° |
| 2026-05-06 09:53 | 50.04721 | 8.57953 | 364 ft | 10 kts | 339° |
| 2026-05-06 09:53 | 50.04778 | 8.57919 | 364 ft | 7 kts | 339° |
| 2026-05-06 09:53 | 50.04815 | 8.57894 | 358 ft | 4 kts | 330° |
| 2026-05-06 09:54 | 50.04830 | 8.57874 | 366 ft | 1 kts | 316° |
| 2026-05-06 09:54 | 50.04841 | 8.57852 | 360 ft | 5 kts | 304° |
| 2026-05-06 09:54 | 50.04861 | 8.57787 | 358 ft | 8 kts | 294° |
| 2026-05-06 09:54 | 50.04882 | 8.57713 | 362 ft | 7 kts | 293° |
| 2026-05-06 09:55 | 50.04902 | 8.57643 | 357 ft | 7 kts | 294° |
| 2026-05-06 09:55 | 50.04922 | 8.57573 | 356 ft | 7 kts | 295° |
| 2026-05-06 09:55 | 50.04932 | 8.57513 | 361 ft | 5 kts | 259° |
| 2026-05-06 09:55 | 50.04917 | 8.57484 | 360 ft | 3 kts | 221° |
| 2026-05-06 09:56 | 50.04896 | 8.57457 | 359 ft | 1 kts | 219° |
| 2026-05-06 09:56 | 50.04886 | 8.57443 | 358 ft | 2 kts | 218° |
| 2026-05-06 09:56 | 50.04884 | 8.57441 | 358 ft | 0 kts | 217° |